Time;durP1;ratioP1;P1;durP2;ratioP2;P2;SDS_P1;SDS_P2;PMS_P1;PMS_P2;Temp;Humidity;BMP_temperature;BMP_pressure;BME280_temperature;BME280_humidity;BME280_pressure;Samples;Min_cycle;Max_cycle;Signal;HPM_P1;HPM_P2
2023/07/02 00:01:22;;;;;;;3.08;1.20;;;;;;;22.21;72.62;99990.81;4991794;28;96788;-64
2023/07/02 00:03:49;;;;;;;1.52;1.30;;;;;;;22.20;72.19;99990.94;4991109;28;98898;-64
2023/07/02 00:06:17;;;;;;;2.25;1.05;;;;;;;22.11;73.27;100000.78;4991886;28;100196;-64
2023/07/02 00:08:43;;;;;;;1.23;1.13;;;;;;;22.45;71.95;99990.28;4991273;28;96844;-65
2023/07/02 00:11:12;;;;;;;1.05;0.98;;;;;;;22.24;72.58;100001.28;4991600;28;97240;-64
2023/07/02 00:13:38;;;;;;;1.55;1.20;;;;;;;22.38;71.93;100001.81;4992287;28;99474;-64
2023/07/02 00:16:05;;;;;;;1.55;1.15;;;;;;;22.39;72.62;99998.94;4990118;28;99491;-64
2023/07/02 00:18:33;;;;;;;2.08;1.13;;;;;;;22.34;72.28;100008.47;4983533;28;96758;-64
2023/07/02 00:21:02;;;;;;;3.92;1.10;;;;;;;22.58;71.79;100006.94;4990884;28;96732;-63
2023/07/02 00:23:29;;;;;;;2.65;1.20;;;;;;;22.64;71.90;100000.13;4990755;28;98254;-63
2023/07/02 00:25:56;;;;;;;1.80;1.50;;;;;;;22.57;71.66;100004.44;4990947;28;98961;-64
2023/07/02 00:28:22;;;;;;;1.55;1.10;;;;;;;22.64;71.63;100008.22;4991484;28;97037;-64
2023/07/02 00:30:48;;;;;;;16.95;15.18;;;;;;;22.67;71.51;100002.53;4991181;28;97002;-63
2023/07/02 00:33:15;;;;;;;5.75;3.35;;;;;;;22.43;72.22;99999.53;4990944;28;99020;-64
2023/07/02 00:35:42;;;;;;;4.45;4.03;;;;;;;22.41;72.50;100014.97;4984610;28;98968;-64
2023/07/02 00:38:08;;;;;;;3.92;1.83;;;;;;;22.44;72.66;100007.47;4985499;28;96823;-64
2023/07/02 00:40:37;;;;;;;3.83;1.70;;;;;;;22.29;73.25;100011.59;4981749;28;96975;-64
2023/07/02 00:43:03;;;;;;;3.20;2.90;;;;;;;22.29;73.43;100011.59;4984466;28;98941;-64
2023/07/02 00:45:31;;;;;;;6.68;4.20;;;;;;;22.25;73.42;100021.81;4982327;28;99202;-64
2023/07/02 00:47:58;;;;;;;3.17;2.00;;;;;;;22.22;73.69;100027.50;4983885;28;96747;-65
2023/07/02 00:50:26;;;;;;;2.63;2.40;;;;;;;22.10;73.70;100017.06;4991114;28;97066;-64
2023/07/02 00:52:53;;;;;;;3.30;2.00;;;;;;;22.05;73.40;100011.25;4990609;28;98869;-63
2023/07/02 00:55:20;;;;;;;3.50;2.20;;;;;;;22.10;73.58;100019.75;4991108;28;98893;-64
2023/07/02 00:57:48;;;;;;;4.97;2.78;;;;;;;22.10;73.45;100011.66;4990685;28;97142;-63
2023/07/02 01:00:15;;;;;;;8.57;4.63;;;;;;;21.95;73.81;100013.06;4990775;28;96835;-63
2023/07/02 01:02:43;;;;;;;2.65;2.42;;;;;;;22.01;73.86;100013.38;4986996;28;102354;-64
2023/07/02 01:05:10;;;;;;;4.70;2.28;;;;;;;22.01;73.40;100021.44;4985963;28;98962;-63
2023/07/02 01:07:36;;;;;;;5.03;2.50;;;;;;;21.94;74.28;100019.44;4990739;28;97016;-64
2023/07/02 01:10:03;;;;;;;3.85;2.70;;;;;;;22.11;72.69;100013.38;4991070;28;96811;-63
2023/07/02 01:12:29;;;;;;;7.40;3.22;;;;;;;21.71;73.88;100006.34;4989927;28;99031;-63
2023/07/02 01:15:01;;;;;;;3.28;2.80;;;;;;;21.79;73.94;100017.19;4991773;28;99042;-63
2023/07/02 01:17:41;;;;;;;3.83;2.92;;;;;;;21.70;74.30;100025.28;4994287;28;96842;-64
2023/07/02 01:20:10;;;;;;;2.38;2.17;;;;;;;21.68;74.05;100027.25;4994536;28;96844;-64
2023/07/02 01:22:38;;;;;;;3.10;2.80;;;;;;;21.64;74.08;100023.16;4993307;28;98989;-63
2023/07/02 01:25:05;;;;;;;3.28;2.80;;;;;;;21.85;72.92;100023.88;4993876;28;98918;-63
2023/07/02 01:27:32;;;;;;;3.85;2.88;;;;;;;21.94;72.57;100019.44;4993567;28;97082;-64
2023/07/02 01:29:58;;;;;;;6.35;3.13;;;;;;;22.01;71.94;100032.22;4993874;28;96740;-64
2023/07/02 01:32:26;;;;;;;3.15;2.63;;;;;;;22.00;72.13;100030.50;4993307;28;99432;-64
2023/07/02 01:34:53;;;;;;;3.40;3.15;;;;;;;21.78;72.79;100028.97;4993626;28;98938;-64
2023/07/02 01:37:21;;;;;;;5.20;3.50;;;;;;;21.85;72.98;100030.09;4993793;28;98121;-64
2023/07/02 01:39:47;;;;;;;4.13;3.55;;;;;;;21.92;72.87;100038.44;4993655;28;96815;-64
2023/07/02 01:42:15;;;;;;;3.58;3.25;;;;;;;22.06;71.86;100027.25;4992950;28;99083;-64
2023/07/02 01:44:42;;;;;;;5.38;3.50;;;;;;;21.73;73.05;100031.22;4993706;28;99214;-64
2023/07/02 01:47:09;;;;;;;3.33;3.03;;;;;;;22.00;72.60;100025.13;4994035;28;96793;-64
2023/07/02 01:49:36;;;;;;;5.63;3.35;;;;;;;21.87;72.59;100022.72;4993698;28;97015;-64
2023/07/02 01:52:02;;;;;;;5.72;3.40;;;;;;;21.86;71.97;100030.91;4992636;28;97748;-64
2023/07/02 01:54:31;;;;;;;7.30;3.97;;;;;;;21.80;71.47;100036.88;4993490;28;98914;-64
2023/07/02 01:56:58;;;;;;;4.30;3.90;;;;;;;21.85;71.49;100046.22;4985456;28;96963;-64
2023/07/02 01:59:24;;;;;;;5.82;3.90;;;;;;;21.85;71.86;100040.84;4993569;28;96813;-64
2023/07/02 02:01:51;;;;;;;6.20;3.70;;;;;;;21.77;71.44;100050.63;4992732;28;100815;-64
2023/07/02 02:04:17;;;;;;;4.25;3.85;;;;;;;21.71;72.02;100035.91;4993289;28;99063;-64
2023/07/02 02:06:43;;;;;;;6.55;4.32;;;;;;;21.63;71.71;100048.34;4993076;28;96795;-64
2023/07/02 02:09:10;;;;;;;5.00;4.00;;;;;;;21.43;72.12;100042.13;4993364;28;96840;-65
2023/07/02 02:11:40;;;;;;;7.20;5.03;;;;;;;21.55;71.58;100051.75;4992382;28;99072;-64
2023/07/02 02:14:07;;;;;;;5.07;3.92;;;;;;;21.58;71.36;100046.09;4993032;28;99083;-64
2023/07/02 02:16:34;;;;;;;4.75;3.97;;;;;;;21.71;70.78;100046.66;4990148;28;96785;-64
2023/07/02 02:19:00;;;;;;;9.82;4.53;;;;;;;21.72;70.97;100048.38;4993024;28;96895;-64
2023/07/02 02:21:27;;;;;;;5.32;3.92;;;;;;;21.55;71.14;100051.75;4992903;28;99797;-64
2023/07/02 02:23:54;;;;;;;5.35;4.00;;;;;;;21.45;72.17;100046.38;4992201;28;98962;-64
2023/07/02 02:26:22;;;;;;;4.22;3.63;;;;;;;21.60;71.25;100054.84;4993237;28;96835;-64
2023/07/02 02:28:49;;;;;;;5.57;3.95;;;;;;;21.70;70.73;100055.72;4992836;28;97077;-64
2023/07/02 02:31:16;;;;;;;17.90;4.47;;;;;;;21.82;69.96;100054.56;4992448;28;101590;-64
2023/07/02 02:33:42;;;;;;;6.80;3.55;;;;;;;21.70;70.08;100055.72;4993061;28;99645;-64
2023/07/02 02:36:08;;;;;;;5.90;3.70;;;;;;;21.71;69.98;100062.81;4992922;28;96842;-63
2023/07/02 02:38:37;;;;;;;5.25;3.55;;;;;;;21.41;70.88;100060.22;4992548;28;96824;-64
2023/07/02 02:41:03;;;;;;;4.10;2.70;;;;;;;21.69;70.22;100062.09;4991879;28;98886;-64
2023/07/02 02:43:29;;;;;;;3.83;3.20;;;;;;;21.80;69.54;100061.94;4992479;28;99149;-64
2023/07/02 02:45:57;;;;;;;5.97;3.80;;;;;;;21.65;70.35;100063.38;4992475;28;97864;-64
2023/07/02 02:48:24;;;;;;;5.32;3.40;;;;;;;21.39;71.06;100062.22;4977769;28;97020;-64
2023/07/02 02:50:50;;;;;;;5.07;3.28;;;;;;;21.58;70.28;100056.84;4991059;28;99458;-64
2023/07/02 02:53:16;;;;;;;6.25;3.47;;;;;;;21.45;70.98;100056.28;4986343;28;99049;-64
2023/07/02 02:55:42;;;;;;;7.30;3.30;;;;;;;21.50;70.90;100059.38;4990287;28;96712;-64
2023/07/02 02:58:09;;;;;;;5.30;3.17;;;;;;;21.56;70.32;100064.19;4985000;28;97214;-64
2023/07/02 03:00:35;;;;;;;4.72;3.22;;;;;;;21.48;71.03;100069.41;4991740;28;98969;-64
2023/07/02 03:03:03;;;;;;;9.25;3.72;;;;;;;21.45;71.30;100075.09;4983407;28;99918;-64
2023/07/02 03:05:29;;;;;;;3.85;3.38;;;;;;;21.26;72.20;100067.84;4988256;28;96798;-64
2023/07/02 03:07:56;;;;;;;7.95;3.55;;;;;;;21.40;71.50;100070.13;4992392;28;96987;-64
2023/07/02 03:10:22;;;;;;;6.88;4.30;;;;;;;21.56;70.74;100064.19;4992195;28;99202;-64
2023/07/02 03:12:48;;;;;;;7.18;3.50;;;;;;;21.54;70.65;100071.53;4991954;28;98963;-64
2023/07/02 03:15:17;;;;;;;5.30;3.20;;;;;;;21.79;69.38;100068.28;4989827;28;96770;-64
2023/07/02 03:17:43;;;;;;;5.90;3.45;;;;;;;21.45;70.54;100072.41;4992551;28;96815;-64
2023/07/02 03:20:12;;;;;;;4.38;3.08;;;;;;;21.32;71.13;100072.69;4987626;28;99297;-64
2023/07/02 03:22:38;;;;;;;5.70;2.95;;;;;;;21.55;70.35;100067.88;4989070;28;99569;-64
2023/07/02 03:25:05;;;;;;;6.25;2.90;;;;;;;21.64;69.59;100076.94;4992773;28;96577;-64
2023/07/02 03:27:31;;;;;;;7.00;3.17;;;;;;;21.63;69.39;100078.78;4991797;28;97310;-64
2023/07/02 03:29:58;;;;;;;3.50;3.20;;;;;;;21.73;69.06;100074.25;4991357;28;98907;-64
2023/07/02 03:32:24;;;;;;;4.72;3.03;;;;;;;21.87;68.26;100079.19;4991902;28;97518;-64
2023/07/02 03:34:51;;;;;;;3.40;3.10;;;;;;;21.59;68.69;100068.47;4991775;28;97315;-65
2023/07/02 03:37:19;;;;;;;8.20;3.30;;;;;;;21.65;68.51;100084.88;4991313;28;96819;-64
2023/07/02 03:39:45;;;;;;;7.40;3.10;;;;;;;21.52;68.76;100081.59;4991769;28;97974;-64
2023/07/02 03:42:12;;;;;;;6.30;2.72;;;;;;;21.43;68.61;100085.13;4988036;28;101049;-64
2023/07/02 03:44:38;;;;;;;5.60;2.97;;;;;;;21.46;69.00;100092.94;4990686;28;96792;-64
2023/07/02 03:47:05;;;;;;;6.57;2.78;;;;;;;21.40;68.26;100091.63;4992651;28;97958;-64
2023/07/02 03:49:31;;;;;;;4.70;2.60;;;;;;;21.42;67.77;100088.78;4991554;28;99203;-65
2023/07/02 03:51:57;;;;;;;9.63;2.70;;;;;;;21.51;67.84;100082.59;4991294;28;98883;-63
2023/07/02 03:54:25;;;;;;;4.13;2.75;;;;;;;21.76;66.59;100082.03;4991384;28;96723;-64
2023/07/02 03:56:51;;;;;;;3.30;2.55;;;;;;;21.70;66.41;100079.91;4991517;28;97159;-64
2023/07/02 03:59:18;;;;;;;4.20;2.45;;;;;;;21.72;65.32;100086.00;4991490;28;99384;-64
2023/07/02 04:01:44;;;;;;;2.38;2.08;;;;;;;21.71;65.20;100088.84;4990830;28;98846;-64
2023/07/02 04:04:11;;;;;;;5.43;2.42;;;;;;;21.79;65.21;100095.19;4991812;28;96846;-64
2023/07/02 04:06:37;;;;;;;5.53;2.65;;;;;;;21.91;64.45;100098.59;4991380;28;96798;-64
2023/07/02 04:09:04;;;;;;;6.88;2.13;;;;;;;21.75;64.92;100098.31;4991000;28;99018;-64
2023/07/02 04:11:31;;;;;;;5.60;2.50;;;;;;;21.99;63.89;100098.75;4990983;28;99428;-64
2023/07/02 04:13:58;;;;;;;3.92;2.60;;;;;;;21.74;64.35;100105.53;4991524;28;96840;-64
2023/07/02 04:16:24;;;;;;;4.20;2.90;;;;;;;21.82;63.80;100102.97;4988507;28;96771;-63
2023/07/02 04:18:50;;;;;;;5.30;2.65;;;;;;;21.86;63.71;100107.06;4990482;28;99052;-65
2023/07/02 04:21:17;;;;;;;5.78;2.15;;;;;;;21.85;63.59;100102.72;4991034;28;98633;-64
2023/07/02 04:23:43;;;;;;;5.18;2.20;;;;;;;21.96;63.64;100101.75;4991286;28;96795;-63
2023/07/02 04:26:10;;;;;;;9.15;2.70;;;;;;;21.75;63.64;100101.84;4991584;28;96902;-64
2023/07/02 04:28:37;;;;;;;7.93;2.30;;;;;;;21.63;64.06;100100.28;4991431;28;101920;-65
2023/07/02 04:31:04;;;;;;;7.07;2.75;;;;;;;21.67;64.06;100104.38;4990854;28;98941;-64
2023/07/02 04:33:35;;;;;;;3.67;2.10;;;;;;;21.70;63.67;100109.50;4991701;28;96645;-62
2023/07/02 04:36:02;;;;;;;2.78;2.10;;;;;;;21.84;63.16;100111.75;4991714;28;96797;-63
2023/07/02 04:38:28;;;;;;;5.57;2.30;;;;;;;21.88;62.82;100113.16;4991027;28;99314;-63
2023/07/02 04:40:57;;;;;;;7.65;2.20;;;;;;;22.10;62.06;100121.97;4990362;28;98829;-63
2023/07/02 04:43:23;;;;;;;5.50;2.38;;;;;;;22.40;61.24;100124.47;4990859;28;96893;-63
2023/07/02 04:45:51;;;;;;;4.53;2.28;;;;;;;21.68;63.44;100137.50;4990929;28;96829;-66
2023/07/02 04:48:17;;;;;;;3.65;2.25;;;;;;;21.85;62.75;100131.44;4993629;28;101062;-64
2023/07/02 04:50:44;;;;;;;2.40;2.00;;;;;;;21.99;61.71;100127.50;4994298;28;99749;-64
2023/07/02 04:53:10;;;;;;;4.55;2.22;;;;;;;22.25;61.51;100134.00;4990815;28;96870;-64
2023/07/02 04:55:36;;;;;;;4.25;2.40;;;;;;;22.62;60.66;100134.91;4983438;28;96994;-63
2023/07/02 04:58:03;;;;;;;5.22;2.33;;;;;;;22.54;60.35;100144.72;4980501;28;99100;-63
2023/07/02 05:00:29;;;;;;;2.72;1.90;;;;;;;22.71;59.59;100138.56;4979788;28;98863;-64
2023/07/02 05:02:57;;;;;;;4.63;2.08;;;;;;;22.76;59.13;100135.47;4977634;28;97036;-63
2023/07/02 05:05:23;;;;;;;3.10;1.85;;;;;;;23.24;58.35;100135.25;4975271;28;97065;-64
2023/07/02 05:07:49;;;;;;;2.35;1.52;;;;;;;23.90;55.69;100138.53;4974136;28;98919;-63
2023/07/02 05:10:16;;;;;;;4.68;1.83;;;;;;;24.88;52.49;100135.59;4981100;28;98850;-63
2023/07/02 05:12:42;;;;;;;3.88;1.60;;;;;;;25.47;51.04;100133.81;4974411;28;96832;-63
2023/07/02 05:15:09;;;;;;;6.60;1.60;;;;;;;25.18;51.07;100146.91;4978224;28;96934;-64
2023/07/02 05:17:36;;;;;;;2.60;1.65;;;;;;;24.44;52.31;100142.91;4974449;28;99248;-64
2023/07/02 05:20:05;;;;;;;5.95;1.70;;;;;;;24.00;52.42;100141.16;4973432;28;101160;-63
2023/07/02 05:22:31;;;;;;;7.68;2.20;;;;;;;23.87;53.59;100146.09;4974381;28;96727;-64
2023/07/02 05:24:57;;;;;;;4.13;1.60;;;;;;;24.04;52.90;100148.78;4974654;28;96893;-63
2023/07/02 05:27:24;;;;;;;3.30;1.73;;;;;;;23.72;53.63;100151.16;4974101;28;97692;-63
2023/07/02 05:29:50;;;;;;;5.10;1.73;;;;;;;23.47;54.24;100151.88;4974100;28;98838;-63
2023/07/02 05:32:17;;;;;;;4.07;1.92;;;;;;;23.18;55.24;100144.78;4973566;28;96822;-64
2023/07/02 05:34:45;;;;;;;5.18;1.90;;;;;;;23.59;54.60;100150.69;4974581;28;96817;-66
2023/07/02 05:37:15;;;;;;;3.95;1.75;;;;;;;23.62;53.29;100148.56;4974641;28;99058;-65
2023/07/02 05:39:42;;;;;;;3.67;2.08;;;;;;;23.48;53.70;100148.22;4976235;28;99233;-64
2023/07/02 05:42:09;;;;;;;7.03;2.20;;;;;;;23.22;53.98;100154.28;4982575;28;97130;-63
2023/07/02 05:44:36;;;;;;;5.38;1.98;;;;;;;22.96;54.23;100150.56;4990684;28;97113;-63
2023/07/02 05:47:02;;;;;;;7.43;2.42;;;;;;;22.82;54.24;100151.91;4993938;28;101740;-64
2023/07/02 05:49:29;;;;;;;3.42;1.90;;;;;;;22.82;55.11;100157.28;4994712;28;97541;-64
2023/07/02 05:51:56;;;;;;;3.28;1.67;;;;;;;23.30;54.20;100151.66;4993517;28;96813;-64
2023/07/02 05:54:24;;;;;;;6.90;2.13;;;;;;;23.33;53.00;100162.16;4994281;28;97182;-65
2023/07/02 05:56:51;;;;;;;3.38;1.90;;;;;;;23.21;53.89;100160.66;4990537;28;97803;-64
2023/07/02 05:59:19;;;;;;;9.38;1.92;;;;;;;23.30;53.19;100173.22;4993063;28;97853;-66
2023/07/02 06:01:45;;;;;;;6.05;2.30;;;;;;;23.37;51.63;100160.00;4993036;28;96735;-63
2023/07/02 06:04:12;;;;;;;2.65;1.80;;;;;;;23.38;51.17;100167.94;4993332;28;96782;-63
2023/07/02 06:06:39;;;;;;;9.30;2.50;;;;;;;23.59;51.53;100178.50;4993193;28;98025;-64
2023/07/02 06:09:06;;;;;;;7.53;2.40;;;;;;;23.54;50.73;100163.78;4993043;28;100385;-64
2023/07/02 06:11:34;;;;;;;6.82;2.35;;;;;;;23.51;51.36;100169.47;4993450;28;96772;-65
2023/07/02 06:14:01;;;;;;;5.45;1.95;;;;;;;23.59;49.66;100159.63;4993700;28;97593;-62
2023/07/02 06:16:27;;;;;;;6.28;2.28;;;;;;;24.12;49.53;100151.56;4989076;28;99028;-63
2023/07/02 06:18:53;;;;;;;4.03;1.90;;;;;;;24.46;48.39;100156.25;4992288;28;99023;-63
2023/07/02 06:21:20;;;;;;;5.85;1.90;;;;;;;24.50;47.57;100168.44;4992834;28;97194;-63
2023/07/02 06:23:48;;;;;;;7.97;2.13;;;;;;;24.09;47.71;100168.06;4992839;28;96852;-63
2023/07/02 06:26:14;;;;;;;5.28;2.10;;;;;;;23.96;48.18;100158.69;4993415;28;99342;-63
2023/07/02 06:28:42;;;;;;;8.93;2.17;;;;;;;23.52;48.80;100161.22;4993104;28;98947;-63
2023/07/02 06:31:09;;;;;;;5.13;2.00;;;;;;;23.23;49.06;100164.06;4984708;28;96717;-63
2023/07/02 06:33:39;;;;;;;3.40;1.90;;;;;;;23.26;49.21;100158.38;4993775;28;97026;-63
2023/07/02 06:36:06;;;;;;;4.38;2.10;;;;;;;23.59;49.11;100143.44;4993226;28;99020;-65
2023/07/02 06:38:32;;;;;;;5.03;2.25;;;;;;;24.00;48.49;100144.72;4993292;28;97742;-63
2023/07/02 06:40:58;;;;;;;6.55;1.90;;;;;;;23.99;47.81;100147.56;4992803;28;97019;-63
2023/07/02 06:43:25;;;;;;;8.30;1.98;;;;;;;23.90;47.70;100153.88;4993379;28;96832;-64
2023/07/02 06:45:52;;;;;;;4.93;2.03;;;;;;;24.08;47.71;100169.09;4989885;28;98942;-66
2023/07/02 06:48:21;;;;;;;2.63;2.13;;;;;;;24.36;46.79;100169.00;4993081;28;98964;-64
2023/07/02 06:50:50;;;;;;;4.93;2.15;;;;;;;24.57;46.00;100169.50;4992374;28;96943;-64
2023/07/02 06:53:17;;;;;;;3.78;2.05;;;;;;;24.28;46.34;100159.00;4979936;28;96818;-64
2023/07/02 06:55:43;;;;;;;6.25;2.10;;;;;;;24.59;46.01;100167.50;4988546;28;99054;-64
2023/07/02 06:58:10;;;;;;;4.78;2.00;;;;;;;24.90;45.74;100162.47;4988822;28;102409;-64
2023/07/02 07:00:36;;;;;;;4.13;1.88;;;;;;;24.96;45.30;100164.53;4987852;28;96748;-63
2023/07/02 07:03:04;;;;;;;6.40;2.50;;;;;;;24.70;45.14;100159.13;4984069;28;96842;-65
2023/07/02 07:05:31;;;;;;;4.60;2.40;;;;;;;24.78;45.19;100153.78;4992573;28;99414;-64
2023/07/02 07:07:57;;;;;;;3.95;2.15;;;;;;;24.69;45.55;100157.41;4991657;28;98831;-65
2023/07/02 07:10:23;;;;;;;6.70;2.35;;;;;;;24.84;44.77;100158.53;4991573;28;97106;-64
2023/07/02 07:12:50;;;;;;;5.03;2.20;;;;;;;24.59;45.44;100168.34;4992095;28;96892;-64
2023/07/02 07:15:16;;;;;;;3.72;1.92;;;;;;;24.17;45.09;100151.94;4988275;28;98979;-64
2023/07/02 07:17:42;;;;;;;5.82;2.10;;;;;;;24.20;45.40;100170.56;4991953;28;99086;-64
2023/07/02 07:20:11;;;;;;;6.10;2.60;;;;;;;23.87;46.27;100164.97;4991830;28;96732;-64
2023/07/02 07:22:37;;;;;;;5.85;2.25;;;;;;;24.14;45.78;100171.16;4992081;28;97002;-64
2023/07/02 07:25:04;;;;;;;3.95;2.25;;;;;;;24.02;45.69;100160.75;4991910;28;99104;-64
2023/07/02 07:27:31;;;;;;;5.82;2.55;;;;;;;23.67;45.88;100166.97;4992375;28;99001;-64
2023/07/02 07:29:57;;;;;;;7.25;2.17;;;;;;;23.73;46.22;100169.06;4985128;28;96876;-64
2023/07/02 07:32:23;;;;;;;4.40;2.20;;;;;;;24.06;45.76;100162.13;4986293;28;96876;-63
2023/07/02 07:34:50;;;;;;;6.40;2.70;;;;;;;24.81;44.25;100171.53;4990901;28;98930;-63
2023/07/02 07:37:18;;;;;;;2.50;1.92;;;;;;;24.90;43.87;100174.13;4991947;28;101715;-63
2023/07/02 07:39:44;;;;;;;6.75;2.40;;;;;;;24.76;44.14;100168.44;4992624;28;97013;-64
2023/07/02 07:42:10;;;;;;;4.88;1.90;;;;;;;25.18;43.47;100172.09;4991781;28;96976;-64
2023/07/02 07:44:37;;;;;;;6.03;2.10;;;;;;;24.96;43.34;100178.91;4991847;28;99148;-64
2023/07/02 07:47:04;;;;;;;3.83;2.08;;;;;;;24.41;43.40;100180.19;4991592;28;102231;-63
2023/07/02 07:49:30;;;;;;;8.73;2.40;;;;;;;24.31;44.22;100174.00;4992302;28;97073;-63
2023/07/02 07:51:56;;;;;;;5.68;2.30;;;;;;;23.87;45.34;100175.78;4991207;28;97241;-63
2023/07/02 07:54:24;;;;;;;3.95;2.25;;;;;;;23.46;46.68;100188.78;4986461;28;97625;-63
2023/07/02 07:56:51;;;;;;;4.88;2.20;;;;;;;23.33;47.16;100197.22;4991632;28;99546;-63
2023/07/02 07:59:17;;;;;;;8.68;2.08;;;;;;;23.21;47.30;100190.31;4991287;28;96855;-65
2023/07/02 08:01:43;;;;;;;2.80;2.17;;;;;;;22.81;48.24;100192.44;4991525;28;96833;-63
2023/07/02 08:04:10;;;;;;;4.03;2.00;;;;;;;22.91;48.48;100198.63;4991345;28;101655;-64
2023/07/02 08:06:36;;;;;;;3.47;2.42;;;;;;;23.06;48.44;100207.94;4985068;28;99169;-64
2023/07/02 08:09:04;;;;;;;5.80;2.00;;;;;;;22.95;49.02;100205.44;4989995;28;96793;-65
2023/07/02 08:11:31;;;;;;;4.20;2.10;;;;;;;23.09;48.74;100213.06;4991553;28;96910;-68
2023/07/02 08:13:58;;;;;;;5.85;2.20;;;;;;;22.63;50.03;100212.03;4991333;28;97638;-65
2023/07/02 08:16:25;;;;;;;7.35;2.33;;;;;;;23.09;49.49;100202.28;4987216;28;99033;-64
2023/07/02 08:18:51;;;;;;;14.57;3.17;;;;;;;22.83;50.04;100201.22;4991202;28;96839;-64
2023/07/02 08:21:17;;;;;;;6.57;2.60;;;;;;;22.79;49.61;100205.19;4991138;28;96839;-64
2023/07/02 08:23:44;;;;;;;6.45;2.38;;;;;;;22.98;49.47;100207.84;4994580;28;99030;-64
2023/07/02 08:26:11;;;;;;;5.82;2.53;;;;;;;23.37;48.82;100204.00;4994666;28;99045;-64
2023/07/02 08:28:39;;;;;;;4.60;2.55;;;;;;;23.40;48.27;100200.16;4991396;28;96913;-64
2023/07/02 08:31:06;;;;;;;3.72;2.15;;;;;;;23.89;47.35;100201.63;4994661;28;97346;-64
2023/07/02 08:33:33;;;;;;;4.72;2.55;;;;;;;23.73;46.53;100196.03;4993864;28;99476;-65
2023/07/02 08:36:00;;;;;;;7.93;2.58;;;;;;;23.61;47.12;100197.25;4994217;28;98854;-64
2023/07/02 08:38:26;;;;;;;4.18;2.15;;;;;;;23.89;46.14;100209.72;4995125;28;96734;-64
2023/07/02 08:40:53;;;;;;;6.40;2.85;;;;;;;23.82;45.93;100209.47;4994747;28;96834;-63
2023/07/02 08:43:19;;;;;;;6.63;2.70;;;;;;;23.70;46.28;100216.06;4994419;28;98896;-63
2023/07/02 08:45:47;;;;;;;6.30;2.85;;;;;;;23.77;46.11;100221.69;4994257;28;99229;-63
2023/07/02 08:48:14;;;;;;;5.63;2.45;;;;;;;24.17;45.09;100214.03;4974346;28;96660;-63
2023/07/02 08:50:41;;;;;;;4.75;2.58;;;;;;;23.45;45.32;100222.97;4974629;28;97252;-63
2023/07/02 08:53:07;;;;;;;4.78;2.80;;;;;;;23.37;44.15;100212.06;4974497;28;99318;-64
2023/07/02 08:55:33;;;;;;;6.10;2.85;;;;;;;23.73;44.25;100223.00;4980451;28;102105;-64
2023/07/02 08:58:00;;;;;;;6.15;3.13;;;;;;;23.72;43.44;100208.66;4976687;28;96804;-64
2023/07/02 09:00:26;;;;;;;6.80;2.88;;;;;;;23.74;41.79;100214.78;4974607;28;97305;-64
2023/07/02 09:02:54;;;;;;;7.30;3.53;;;;;;;23.62;42.70;100225.91;4978441;28;99210;-64
2023/07/02 09:05:20;;;;;;;7.10;3.10;;;;;;;23.81;42.21;100223.09;4974893;28;98582;-64
2023/07/02 09:07:48;;;;;;;6.80;3.33;;;;;;;24.18;40.78;100220.28;4974608;28;97199;-64
2023/07/02 09:10:27;;;;;;;7.25;2.90;;;;;;;24.58;39.72;100220.66;4974280;28;97018;-65
2023/07/02 09:13:03;;;;;;;6.05;3.28;;;;;;;25.18;39.14;100228.03;4973156;28;100560;-64
2023/07/02 09:15:36;;;;;;;6.55;3.53;;;;;;;24.92;38.50;100222.63;4979060;28;98886;-64
2023/07/02 09:18:03;;;;;;;8.63;3.30;;;;;;;25.12;38.63;100231.38;4974627;28;96812;-63
2023/07/02 09:20:33;;;;;;;11.25;3.58;;;;;;;24.67;38.90;100237.78;4974352;28;97188;-64
2023/07/02 09:23:00;;;;;;;9.77;3.42;;;;;;;24.39;39.45;100220.84;4974055;28;97724;-64
2023/07/02 09:25:34;;;;;;;11.10;4.10;;;;;;;24.65;39.43;100236.25;4974188;28;99019;-63
2023/07/02 09:28:01;;;;;;;8.50;3.50;;;;;;;24.55;39.86;100233.63;4975911;28;96707;-63
2023/07/02 09:30:28;;;;;;;7.60;4.28;;;;;;;24.51;39.73;100233.09;4974541;28;96762;-62
2023/07/02 09:32:54;;;;;;;11.13;4.20;;;;;;;24.44;39.28;100234.72;4973732;28;99164;-64
2023/07/02 09:35:22;;;;;;;11.55;4.07;;;;;;;24.79;39.22;100236.53;4973248;28;98841;-64
2023/07/02 09:37:49;;;;;;;9.80;4.32;;;;;;;25.00;38.58;100234.34;4974164;28;96805;-64
2023/07/02 09:40:17;;;;;;;9.35;3.60;;;;;;;25.01;38.99;100236.03;4977343;28;96963;-65
2023/07/02 09:42:50;;;;;;;12.48;4.70;;;;;;;24.52;39.60;100232.09;4978482;28;99146;-64
2023/07/02 09:45:17;;;;;;;11.05;4.40;;;;;;;25.06;38.66;100224.75;4973721;28;101788;-64
2023/07/02 09:47:47;;;;;;;9.00;4.35;;;;;;;24.95;37.77;100236.66;4974207;28;97088;-64
2023/07/02 09:50:17;;;;;;;11.77;4.90;;;;;;;24.79;38.08;100232.97;4974396;28;97109;-63
2023/07/02 09:52:45;;;;;;;11.77;5.15;;;;;;;24.17;38.13;100232.06;4973497;28;99015;-63
2023/07/02 09:55:12;;;;;;;11.15;5.45;;;;;;;24.14;38.14;100221.59;4974056;28;97608;-63
2023/07/02 09:57:40;;;;;;;10.90;4.57;;;;;;;24.61;38.35;100224.91;4974034;28;96710;-64
2023/07/02 10:00:08;;;;;;;14.90;5.22;;;;;;;24.77;37.80;100225.03;4973550;28;96863;-64
2023/07/02 10:02:35;;;;;;;12.38;4.90;;;;;;;24.88;37.49;100227.47;4977717;28;98625;-63
2023/07/02 10:05:02;;;;;;;10.52;5.07;;;;;;;24.59;37.76;100221.50;4973510;28;101624;-64
2023/07/02 10:07:30;;;;;;;13.02;5.35;;;;;;;24.91;37.95;100229.88;4974644;28;96724;-63
2023/07/02 10:09:57;;;;;;;16.63;5.55;;;;;;;24.98;37.79;100214.75;4973715;28;97025;-64
2023/07/02 10:12:25;;;;;;;20.50;5.63;;;;;;;24.75;37.77;100215.38;4973606;28;99119;-63
2023/07/02 10:14:53;;;;;;;14.32;5.90;;;;;;;24.80;38.25;100215.78;4978300;28;98812;-65
2023/07/02 10:17:28;;;;;;;15.45;5.57;;;;;;;25.18;37.99;100218.06;4974056;28;96957;-65
2023/07/02 10:19:55;;;;;;;11.35;5.35;;;;;;;25.04;38.17;100217.81;4990247;28;99973;-62
2023/07/02 10:22:22;;;;;;;12.75;4.30;;;;;;;25.23;38.15;100228.38;4973156;28;98943;-69
2023/07/02 10:24:54;;;;;;;12.68;5.03;;;;;;;25.56;37.46;100232.94;4973485;28;98890;-70
2023/07/02 10:27:21;;;;;;;12.13;5.28;;;;;;;25.54;37.48;100218.72;4980955;28;96695;-69
2023/07/02 10:29:51;;;;;;;9.82;4.97;;;;;;;26.10;37.14;100222.66;4973589;28;96865;-69
2023/07/02 10:32:28;;;;;;;10.90;5.47;;;;;;;26.24;36.66;100213.91;4973335;28;99124;-70
2023/07/02 10:34:54;;;;;;;14.73;5.40;;;;;;;26.03;36.64;100232.44;4993036;28;98844;-69
2023/07/02 10:37:21;;;;;;;14.50;4.70;;;;;;;25.68;37.57;100220.84;4985144;28;96595;-70
2023/07/02 10:39:48;;;;;;;11.23;4.93;;;;;;;25.76;37.15;100217.31;4992874;28;97020;-71
2023/07/02 10:42:14;;;;;;;13.75;5.30;;;;;;;25.57;37.97;100217.56;4992309;28;99162;-69
2023/07/02 10:44:52;;;;;;;14.43;5.70;;;;;;;25.54;37.04;100216.03;4986688;28;98889;-70
2023/07/02 10:47:19;;;;;;;12.63;5.90;;;;;;;25.35;37.91;100214.41;4992688;28;96793;-69
2023/07/02 10:49:46;;;;;;;12.13;5.53;;;;;;;25.60;36.97;100212.69;4980634;28;96818;-69
2023/07/02 10:52:12;;;;;;;13.95;6.18;;;;;;;25.41;36.56;100213.78;4980555;28;97630;-71
2023/07/02 10:54:41;;;;;;;14.30;5.40;;;;;;;25.86;36.45;100214.47;4979652;28;97075;-69
2023/07/02 10:57:08;;;;;;;11.85;6.05;;;;;;;26.23;35.98;100219.44;4974774;28;96847;-69
2023/07/02 10:59:34;;;;;;;14.23;5.90;;;;;;;26.49;35.30;100223.72;4973367;28;96754;-70
2023/07/02 11:02:03;;;;;;;14.68;5.68;;;;;;;27.01;34.37;100219.81;4977777;28;97746;-70
2023/07/02 11:04:30;;;;;;;16.48;5.97;;;;;;;26.53;34.89;100211.53;4972944;28;98882;-70
2023/07/02 11:06:56;;;;;;;11.90;5.97;;;;;;;25.83;36.16;100231.88;4972974;28;96929;-70
2023/07/02 11:09:24;;;;;;;16.02;5.80;;;;;;;25.71;35.94;100234.06;4973753;28;97436;-71
2023/07/02 11:11:53;;;;;;;14.15;6.28;;;;;;;25.64;36.00;100235.72;4972316;28;99158;-70
2023/07/02 11:14:27;;;;;;;11.90;6.53;;;;;;;25.61;36.54;100235.19;4980653;28;98941;-70
2023/07/02 11:16:55;;;;;;;19.48;6.00;;;;;;;25.63;36.25;100236.72;4973189;28;96908;-70
2023/07/02 11:19:23;;;;;;;22.05;5.60;;;;;;;25.43;36.90;100240.66;4972565;28;96966;-71
2023/07/02 11:21:55;;;;;;;13.40;5.93;;;;;;;25.52;36.60;100242.41;4972436;28;99134;-71
2023/07/02 11:24:29;;;;;;;17.98;6.15;;;;;;;25.76;36.02;100239.81;4972732;28;101944;-70